createdAt,value
2018-04-01T00:01:04.037Z,11.03
2018-04-01T00:03:37.435Z,11.17
2018-04-01T00:06:11.684Z,13.07
2018-04-01T00:08:45.228Z,12.70
2018-04-01T00:11:18.845Z,10.63
2018-04-01T00:13:52.400Z,12.33
2018-04-01T00:16:26.792Z,13.07
2018-04-01T00:19:00.419Z,13.10
2018-04-01T00:21:34.125Z,11.73
2018-04-01T00:24:07.722Z,12.73
2018-04-01T00:26:41.995Z,10.40
2018-04-01T00:29:15.738Z,14.57
2018-04-01T00:31:50.248Z,12.33
2018-04-01T00:34:23.820Z,11.40
2018-04-01T00:36:57.306Z,13.83
2018-04-01T00:39:30.653Z,10.20
2018-04-01T00:42:04.238Z,15.53
2018-04-01T00:44:37.824Z,9.77
2018-04-01T00:47:11.233Z,11.37
2018-04-01T00:49:44.695Z,9.17
2018-04-01T00:52:18.452Z,8.93
2018-04-01T00:54:52.022Z,8.57
2018-04-01T00:57:25.694Z,10.53
2018-04-01T00:59:59.043Z,9.17
2018-04-01T01:02:32.491Z,10.47
2018-04-01T01:05:06.040Z,12.97
2018-04-01T01:07:39.630Z,12.50
2018-04-01T01:10:13.422Z,18.93
2018-04-01T01:12:47.587Z,11.07
2018-04-01T01:15:21.102Z,15.40
2018-04-01T01:17:54.640Z,12.20
2018-04-01T01:20:28.188Z,10.13
2018-04-01T01:23:01.748Z,11.60
2018-04-01T01:25:35.196Z,10.93
2018-04-01T01:28:08.697Z,10.90
2018-04-01T01:30:43.071Z,13.13
2018-04-01T01:33:17.404Z,13.17
2018-04-01T01:35:51.796Z,15.30
2018-04-01T01:38:20.032Z,20.37
2018-04-01T01:40:54.066Z,12.50
2018-04-01T01:43:27.455Z,13.27
2018-04-01T01:46:00.878Z,12.60
2018-04-01T01:48:34.480Z,14.03
2018-04-01T01:51:07.899Z,15.53
2018-04-01T01:53:41.484Z,13.63
2018-04-01T01:56:14.977Z,20.37
2018-04-01T01:58:48.334Z,14.40
2018-04-01T02:01:21.786Z,15.83
2018-04-01T02:03:55.437Z,17.27
2018-04-01T02:06:29.529Z,16.60
2018-04-01T02:09:03.456Z,15.90
2018-04-01T02:11:37.889Z,13.80
2018-04-01T02:14:11.480Z,13.73
2018-04-01T02:16:45.804Z,15.33
2018-04-01T02:19:19.755Z,19.43
2018-04-01T02:21:53.780Z,22.50
2018-04-01T02:24:27.149Z,15.20
2018-04-01T02:27:00.937Z,18.50
2018-04-01T02:29:34.335Z,15.13
2018-04-01T02:32:06.800Z,17.10
2018-04-01T02:34:40.351Z,19.10
2018-04-01T02:37:13.922Z,16.33
2018-04-01T02:39:47.693Z,15.80
2018-04-01T02:42:21.916Z,16.30
2018-04-01T02:44:55.198Z,16.17
2018-04-01T02:47:28.709Z,18.50
2018-04-01T02:50:02.030Z,15.13
2018-04-01T02:52:36.200Z,15.23
2018-04-01T02:55:09.604Z,21.20
2018-04-01T02:57:44.029Z,16.17
2018-04-01T03:00:17.532Z,15.10
2018-04-01T03:02:51.183Z,18.17
2018-04-01T03:05:24.767Z,15.73
2018-04-01T03:07:58.532Z,17.23
2018-04-01T03:10:32.148Z,16.73
2018-04-01T03:13:07.267Z,18.47
2018-04-01T03:15:40.668Z,15.63
2018-04-01T03:18:14.310Z,17.23
2018-04-01T03:20:48.800Z,17.03
2018-04-01T03:23:22.399Z,19.20
2018-04-01T03:25:56.591Z,21.10
2018-04-01T03:28:30.920Z,20.23
2018-04-01T03:31:04.486Z,21.77
2018-04-01T03:33:38.093Z,22.80
2018-04-01T03:36:11.548Z,27.00
2018-04-01T03:38:45.016Z,28.53
2018-04-01T03:41:19.350Z,24.90
2018-04-01T03:43:53.653Z,23.20
2018-04-01T03:46:27.977Z,20.40
2018-04-01T03:49:01.543Z,27.60
2018-04-01T03:51:35.162Z,20.80
2018-04-01T03:54:08.744Z,22.20
2018-04-01T03:56:42.995Z,29.33
2018-04-01T03:59:17.217Z,31.77
2018-04-01T04:01:50.846Z,21.77
2018-04-01T04:04:25.003Z,26.67
2018-04-01T04:06:58.266Z,24.27
2018-04-01T04:09:31.729Z,18.37
2018-04-01T04:12:05.157Z,25.00
2018-04-01T04:14:38.711Z,12.33
2018-04-01T04:17:12.131Z,21.27
2018-04-01T04:19:45.687Z,15.97
2018-04-01T04:22:19.194Z,13.57
2018-04-01T04:24:52.940Z,10.70
2018-04-01T04:27:26.182Z,10.27
2018-04-01T04:29:59.324Z,8.10
2018-04-01T04:32:32.708Z,7.90
2018-04-01T04:35:07.113Z,6.20
2018-04-01T04:37:40.724Z,8.47
2018-04-01T04:40:14.226Z,8.47
2018-04-01T04:42:47.648Z,10.57
2018-04-01T04:45:21.202Z,13.03
2018-04-01T04:47:54.827Z,10.90
2018-04-01T04:50:28.340Z,12.67
2018-04-01T04:53:02.496Z,12.80
2018-04-01T04:55:36.747Z,12.83
2018-04-01T04:58:10.422Z,20.70
2018-04-01T05:00:44.014Z,16.53
2018-04-01T05:03:17.556Z,14.40
2018-04-01T05:05:51.103Z,24.10
2018-04-01T05:08:24.670Z,16.30
2018-04-01T05:10:58.280Z,18.67
2018-04-01T05:13:31.964Z,16.33
2018-04-01T05:16:05.508Z,18.87
2018-04-01T05:18:39.154Z,15.80
2018-04-01T05:21:12.760Z,23.00
2018-04-01T05:23:46.715Z,21.40
2018-04-01T05:26:21.170Z,17.57
2018-04-01T05:28:55.563Z,17.93
2018-04-01T05:31:29.811Z,21.93
2018-04-01T05:34:04.214Z,21.80
2018-04-01T05:36:38.746Z,20.17
2018-04-01T05:39:12.197Z,21.90
2018-04-01T05:41:46.259Z,20.27
2018-04-01T05:44:19.756Z,18.20
2018-04-01T05:46:53.251Z,19.30
2018-04-01T05:49:26.618Z,21.73
2018-04-01T05:52:01.030Z,18.90
2018-04-01T05:54:35.251Z,16.63
2018-04-01T05:57:08.842Z,21.80
2018-04-01T05:59:42.372Z,18.40
2018-04-01T06:02:15.949Z,16.27
2018-04-01T06:04:50.316Z,21.20
2018-04-01T06:07:24.598Z,15.17
2018-04-01T06:09:58.274Z,12.57
2018-04-01T06:12:32.510Z,15.63
2018-04-01T06:15:05.918Z,10.70
2018-04-01T06:17:40.949Z,9.37
2018-04-01T06:20:14.626Z,9.10
2018-04-01T06:22:48.872Z,9.77
2018-04-01T06:25:23.198Z,9.63
2018-04-01T06:27:57.020Z,10.83
2018-04-01T06:30:30.703Z,7.40
2018-04-01T06:33:04.266Z,8.00
2018-04-01T06:35:37.922Z,7.93
2018-04-01T06:38:12.131Z,7.60
2018-04-01T06:40:45.790Z,8.00
2018-04-01T06:43:19.595Z,6.83
2018-04-01T06:45:53.139Z,8.03
2018-04-01T06:48:26.810Z,5.73
2018-04-01T06:51:00.942Z,6.50
2018-04-01T06:53:35.303Z,5.60
2018-04-01T06:56:08.812Z,5.53
2018-04-01T06:58:42.989Z,5.20
2018-04-01T07:01:16.500Z,5.37
2018-04-01T07:03:50.058Z,5.00
2018-04-01T07:06:23.512Z,4.00
2018-04-01T07:08:57.139Z,4.97
2018-04-01T07:11:30.535Z,5.30
2018-04-01T07:14:04.111Z,5.30
2018-04-01T07:16:38.663Z,5.40
2018-04-01T07:19:12.110Z,6.23
2018-04-01T07:21:45.660Z,6.73
2018-04-01T07:24:19.185Z,6.30
2018-04-01T07:26:52.568Z,8.03
2018-04-01T07:29:25.960Z,8.07
2018-04-01T07:31:59.533Z,9.00
2018-04-01T07:34:33.053Z,13.53
2018-04-01T07:37:07.398Z,11.43
2018-04-01T07:39:40.917Z,12.37
2018-04-01T07:42:14.562Z,13.63
2018-04-01T07:44:48.228Z,14.57
2018-04-01T07:47:21.572Z,14.80
2018-04-01T07:49:55.108Z,17.20
2018-04-01T07:52:28.717Z,16.50
2018-04-01T07:55:03.237Z,18.23
2018-04-01T07:57:36.572Z,18.23
2018-04-01T08:00:10.727Z,21.83
2018-04-01T08:02:44.449Z,23.73
2018-04-01T08:05:18.864Z,21.03
2018-04-01T08:07:52.405Z,24.43
2018-04-01T08:10:25.854Z,23.47
2018-04-01T08:12:59.252Z,25.03
2018-04-01T08:15:32.761Z,25.93
2018-04-01T08:18:06.217Z,24.90
2018-04-01T08:20:39.816Z,25.07
2018-04-01T08:23:13.295Z,20.27
2018-04-01T08:25:46.832Z,23.73
2018-04-01T08:28:20.385Z,24.43
2018-04-01T08:30:54.125Z,25.80
2018-04-01T08:33:27.579Z,27.43
2018-04-01T08:36:02.092Z,21.17
2018-04-01T08:38:35.540Z,24.30
2018-04-01T08:41:08.978Z,24.37
2018-04-01T08:43:44.600Z,23.13
2018-04-01T08:46:18.145Z,21.20
2018-04-01T08:48:51.798Z,21.87
2018-04-01T08:51:25.352Z,20.83
2018-04-01T08:53:58.865Z,19.83
2018-04-01T08:56:32.443Z,23.63
2018-04-01T08:59:05.865Z,22.60
2018-04-01T09:01:39.509Z,22.93
2018-04-01T09:04:13.787Z,21.27
2018-04-01T09:06:47.394Z,27.07
2018-04-01T09:09:21.071Z,25.30
2018-04-01T09:11:55.175Z,29.37
2018-04-01T09:14:28.608Z,30.50
2018-04-01T09:17:02.005Z,25.62
2018-04-01T09:19:36.475Z,26.73
2018-04-01T09:22:10.199Z,24.50
2018-04-01T09:24:43.954Z,31.00
2018-04-01T09:27:17.522Z,32.50
2018-04-01T09:29:51.534Z,28.10
2018-04-01T09:32:25.925Z,35.73
2018-04-01T09:34:59.344Z,32.83
2018-04-01T09:37:32.751Z,33.47
2018-04-01T09:40:06.644Z,38.07
2018-04-01T09:42:41.927Z,37.83
2018-04-01T09:45:15.430Z,35.17
2018-04-01T09:47:49.039Z,37.30
2018-04-01T09:50:22.783Z,35.97
2018-04-01T09:52:56.438Z,37.70
2018-04-01T09:55:30.000Z,37.13
2018-04-01T09:58:03.605Z,35.60
2018-04-01T10:00:48.678Z,33.27
2018-04-01T10:03:23.624Z,35.00
2018-04-01T10:05:58.257Z,36.07
2018-04-01T10:08:32.949Z,34.67
2018-04-01T10:11:07.892Z,32.97
2018-04-01T10:13:42.441Z,30.90
2018-04-01T10:16:18.140Z,30.80
2018-04-01T10:18:53.730Z,36.70
2018-04-01T10:21:28.474Z,35.00
2018-04-01T10:24:03.105Z,32.73
2018-04-01T10:26:37.810Z,36.50
2018-04-01T10:29:12.670Z,29.93
2018-04-01T10:31:47.180Z,33.17
2018-04-01T10:34:21.928Z,28.17
2018-04-01T10:36:57.582Z,30.97
2018-04-01T10:39:32.414Z,34.07
2018-04-01T10:42:07.340Z,30.30
2018-04-01T10:44:41.936Z,29.43
2018-04-01T10:47:16.761Z,27.73
2018-04-01T10:49:53.013Z,27.20
2018-04-01T10:52:27.521Z,29.63
2018-04-01T10:55:01.130Z,27.87
2018-04-01T10:57:34.940Z,26.60
2018-04-01T11:00:08.627Z,26.57
2018-04-01T11:02:41.920Z,24.80
2018-04-01T11:05:15.592Z,22.83
2018-04-01T11:07:49.139Z,22.50
2018-04-01T11:10:22.632Z,25.70
2018-04-01T11:12:56.308Z,19.13
2018-04-01T11:15:30.069Z,18.60
2018-04-01T11:18:03.517Z,18.40
2018-04-01T11:20:37.185Z,17.47
2018-04-01T11:23:10.636Z,18.60
2018-04-01T11:25:44.459Z,15.03
2018-04-01T11:28:18.835Z,14.77
2018-04-01T11:30:52.408Z,16.33
2018-04-01T11:33:26.620Z,15.83
2018-04-01T11:36:00.086Z,16.33
2018-04-01T11:38:33.974Z,18.50
2018-04-01T11:41:07.518Z,21.20
2018-04-01T11:43:40.962Z,20.67
2018-04-01T11:46:14.588Z,21.30
2018-04-01T11:48:47.970Z,20.30
2018-04-01T11:51:21.530Z,19.57
2018-04-01T11:53:55.084Z,18.27
2018-04-01T11:56:29.475Z,18.03
2018-04-01T11:59:03.867Z,20.17
2018-04-01T12:01:37.371Z,26.90
2018-04-01T12:04:10.872Z,24.17
2018-04-01T12:06:44.429Z,22.60
2018-04-01T12:09:18.787Z,21.30
2018-04-01T12:11:52.349Z,23.40
2018-04-01T12:14:25.956Z,24.97
2018-04-01T12:16:59.530Z,24.00
2018-04-01T12:19:32.972Z,26.60
2018-04-01T12:22:06.674Z,27.40
2018-04-01T12:24:40.292Z,25.40
2018-04-01T12:27:13.719Z,24.73
2018-04-01T12:29:47.182Z,24.50
2018-04-01T12:32:20.592Z,26.80
2018-04-01T12:34:54.472Z,24.30
2018-04-01T12:37:28.699Z,24.10
2018-04-01T12:40:02.317Z,26.90
2018-04-01T12:42:35.848Z,25.40
2018-04-01T12:45:09.455Z,28.53
2018-04-01T12:47:43.852Z,28.20
2018-04-01T12:50:17.225Z,34.17
2018-04-01T12:52:50.903Z,31.63
2018-04-01T12:55:24.328Z,28.50
2018-04-01T12:57:57.811Z,29.97
2018-04-01T13:00:31.399Z,29.47
2018-04-01T13:03:04.828Z,30.70
2018-04-01T13:05:38.343Z,31.20
2018-04-01T13:08:11.853Z,30.80
2018-04-01T13:10:46.120Z,27.97
2018-04-01T13:13:19.854Z,29.83
2018-04-01T13:15:53.384Z,28.40
2018-04-01T13:18:26.934Z,28.70
2018-04-01T13:21:00.531Z,32.03
2018-04-01T13:23:34.444Z,31.93
2018-04-01T13:26:07.870Z,29.80
2018-04-01T13:28:41.473Z,33.43
2018-04-01T13:31:15.665Z,32.50
2018-04-01T13:33:49.216Z,29.47
2018-04-01T13:36:22.839Z,33.03
2018-04-01T13:38:57.172Z,33.40
2018-04-01T13:41:30.789Z,33.80
2018-04-01T13:44:05.096Z,33.57
2018-04-01T13:46:39.490Z,30.77
2018-04-01T13:49:13.906Z,33.43
2018-04-01T13:51:47.511Z,37.93
2018-04-01T13:54:21.747Z,35.63
2018-04-01T13:56:55.345Z,38.40
2018-04-01T13:59:28.914Z,40.40
2018-04-01T14:02:02.563Z,43.73
2018-04-01T14:04:36.180Z,44.70
2018-04-01T14:07:10.465Z,40.53
2018-04-01T14:09:43.885Z,45.80
2018-04-01T14:12:18.224Z,44.10
2018-04-01T14:14:51.592Z,53.73
2018-04-01T14:17:25.192Z,49.07
2018-04-01T14:19:58.601Z,42.10
2018-04-01T14:22:32.237Z,45.90
2018-04-01T14:25:05.829Z,46.23
2018-04-01T14:27:40.108Z,37.63
2018-04-01T14:30:14.479Z,45.23
2018-04-01T14:32:47.974Z,50.33
2018-04-01T14:35:21.521Z,43.63
2018-04-01T14:37:54.957Z,44.20
2018-04-01T14:40:28.425Z,48.83
2018-04-01T14:43:02.758Z,52.40
2018-04-01T14:45:37.119Z,54.40
2018-04-01T14:48:10.642Z,46.43
2018-04-01T14:50:44.327Z,57.70
2018-04-01T14:53:18.582Z,53.53
2018-04-01T14:55:52.156Z,58.80
2018-04-01T14:58:25.733Z,63.37
2018-04-01T15:00:59.290Z,60.10
2018-04-01T15:03:32.882Z,45.73
2018-04-01T15:06:06.333Z,26.90
2018-04-01T15:08:39.791Z,20.07
2018-04-01T15:11:14.430Z,11.53
2018-04-01T15:13:47.969Z,10.83
2018-04-01T15:16:21.578Z,14.77
2018-04-01T15:18:55.252Z,12.73
2018-04-01T15:21:28.811Z,17.27
2018-04-01T15:24:04.012Z,16.70
2018-04-01T15:26:37.602Z,15.60
2018-04-01T15:29:11.152Z,16.20
2018-04-01T15:31:44.707Z,16.93
2018-04-01T15:34:18.952Z,18.40
2018-04-01T15:36:53.488Z,22.37
2018-04-01T15:39:26.654Z,23.37
2018-04-01T15:42:00.220Z,22.60
2018-04-01T15:44:33.777Z,21.63
2018-04-01T15:47:07.401Z,24.77
2018-04-01T15:49:40.912Z,28.70
2018-04-01T15:52:15.098Z,23.53
2018-04-01T15:54:48.732Z,28.30
2018-04-01T15:57:22.409Z,25.47
2018-04-01T15:59:56.070Z,23.00
2018-04-01T16:02:29.711Z,23.63
2018-04-01T16:05:03.290Z,24.70
2018-04-01T16:07:38.199Z,27.83
2018-04-01T16:10:12.537Z,33.57
2018-04-01T16:12:45.910Z,28.03
2018-04-01T16:15:19.435Z,26.70
2018-04-01T16:17:55.531Z,27.60
2018-04-01T16:20:29.093Z,31.10
2018-04-01T16:23:03.499Z,32.40
2018-04-01T16:25:36.934Z,34.93
2018-04-01T16:28:10.452Z,31.47
2018-04-01T16:30:44.021Z,32.17
2018-04-01T16:33:17.536Z,31.70
2018-04-01T16:35:51.113Z,35.50
2018-04-01T16:38:24.668Z,32.77
2018-04-01T16:40:58.766Z,34.20
2018-04-01T16:43:32.251Z,30.60
2018-04-01T16:46:06.668Z,29.40
2018-04-01T16:48:41.135Z,27.20
2018-04-01T16:51:14.620Z,29.57
2018-04-01T16:53:48.181Z,38.93
2018-04-01T16:56:21.773Z,36.63
2018-04-01T16:58:56.153Z,34.80
2018-04-01T17:01:30.349Z,31.10
2018-04-01T17:04:03.750Z,30.77
2018-04-01T17:06:37.326Z,30.60
2018-04-01T17:09:10.968Z,31.10
2018-04-01T17:11:45.049Z,29.13
2018-04-01T17:14:18.803Z,32.30
2018-04-01T17:16:52.414Z,31.23
2018-04-01T17:19:25.788Z,31.73
2018-04-01T17:21:59.497Z,30.93
2018-04-01T17:24:33.227Z,31.17
2018-04-01T17:27:06.696Z,32.00
2018-04-01T17:29:41.762Z,34.47
2018-04-01T17:32:16.137Z,30.77
2018-04-01T17:34:49.713Z,29.83
2018-04-01T17:37:24.146Z,34.00
2018-04-01T17:39:58.544Z,30.93
2018-04-01T17:42:32.104Z,36.10
2018-04-01T17:45:05.564Z,29.63
2018-04-01T17:47:39.191Z,30.10
2018-04-01T17:50:12.757Z,31.10
2018-04-01T17:52:47.165Z,30.00
2018-04-01T17:55:20.575Z,29.87
2018-04-01T17:57:54.989Z,34.77
2018-04-01T18:00:28.390Z,35.80
2018-04-01T18:03:02.107Z,32.33
2018-04-01T18:05:37.163Z,30.10
2018-04-01T18:08:10.960Z,28.63
2018-04-01T18:10:44.429Z,30.23
2018-04-01T18:13:18.934Z,32.93
2018-04-01T18:15:53.300Z,35.90
2018-04-01T18:18:26.891Z,31.23
2018-04-01T18:21:00.544Z,32.27
2018-04-01T18:23:34.143Z,34.73
2018-04-01T18:26:07.563Z,35.70
2018-04-01T18:28:41.090Z,31.47
2018-04-01T18:31:14.656Z,36.27
2018-04-01T18:33:49.085Z,34.07
2018-04-01T18:36:22.813Z,35.03
2018-04-01T18:38:56.380Z,36.73
2018-04-01T18:41:29.994Z,32.43
2018-04-01T18:44:04.344Z,33.40
2018-04-01T18:46:37.953Z,34.50
2018-04-01T18:49:11.416Z,36.30
2018-04-01T18:51:45.685Z,36.57
2018-04-01T18:54:19.221Z,34.20
2018-04-01T18:56:53.244Z,36.07
2018-04-01T18:59:26.665Z,37.47
2018-04-01T19:02:00.244Z,36.37
2018-04-01T19:04:33.768Z,38.20
2018-04-01T19:07:07.367Z,39.83
2018-04-01T19:09:40.912Z,42.00
2018-04-01T19:12:14.342Z,37.20
2018-04-01T19:14:47.940Z,40.70
2018-04-01T19:17:22.853Z,42.30
2018-04-01T19:19:57.621Z,37.53
2018-04-01T19:22:33.010Z,42.97
2018-04-01T19:25:07.636Z,40.00
2018-04-01T19:27:42.341Z,42.40
2018-04-01T19:30:17.064Z,40.13
2018-04-01T19:32:51.766Z,43.07
2018-04-01T19:35:26.668Z,46.13
2018-04-01T19:38:01.368Z,45.83
2018-04-01T19:40:36.244Z,41.97
2018-04-01T19:43:11.041Z,40.90
2018-04-01T19:45:45.727Z,39.57
2018-04-01T19:48:20.502Z,42.27
2018-04-01T19:50:55.283Z,40.67
2018-04-01T19:53:29.849Z,43.10
2018-04-01T19:56:04.421Z,42.63
2018-04-01T19:58:39.100Z,45.87
2018-04-01T20:01:14.116Z,44.60
2018-04-01T20:03:49.009Z,47.70
2018-04-01T20:06:23.839Z,47.47
2018-04-01T20:08:58.926Z,48.33
2018-04-01T20:11:33.748Z,48.27
2018-04-01T20:14:09.330Z,43.90
2018-04-01T20:16:44.953Z,51.50
2018-04-01T20:19:19.706Z,52.13
2018-04-01T20:21:54.451Z,60.70
2018-04-01T20:24:29.972Z,63.67
2018-04-01T20:27:04.919Z,69.27
2018-04-01T20:29:39.755Z,72.57
2018-04-01T20:32:14.550Z,76.17
2018-04-01T20:34:49.203Z,78.13
2018-04-01T20:37:24.560Z,80.70
2018-04-01T20:39:59.369Z,80.50
2018-04-01T20:42:34.919Z,73.90
2018-04-01T20:45:09.546Z,78.37
2018-04-01T20:47:44.769Z,77.93
2018-04-01T20:50:20.336Z,82.47
2018-04-01T20:52:54.979Z,76.00
2018-04-01T20:55:29.592Z,84.57
2018-04-01T20:58:04.383Z,76.33
2018-04-01T21:00:39.356Z,72.30
2018-04-01T21:03:14.184Z,74.77
2018-04-01T21:05:48.960Z,81.20
2018-04-01T21:08:23.544Z,67.80
2018-04-01T21:10:58.160Z,70.80
2018-04-01T21:13:33.026Z,72.20
2018-04-01T21:16:07.958Z,69.87
2018-04-01T21:18:42.529Z,72.30
2018-04-01T21:21:17.208Z,75.37
2018-04-01T21:23:52.613Z,71.03
2018-04-01T21:26:27.230Z,65.93
2018-04-01T21:29:01.947Z,70.73
2018-04-01T21:31:36.927Z,83.97
2018-04-01T21:34:11.500Z,77.47
2018-04-01T21:36:46.371Z,75.67
2018-04-01T21:39:21.122Z,82.13
2018-04-01T21:41:55.886Z,75.73
2018-04-01T21:44:30.624Z,79.90
2018-04-01T21:47:06.297Z,91.00
2018-04-01T21:49:41.716Z,99.37
2018-04-01T21:52:16.592Z,110.83
2018-04-01T21:54:51.565Z,110.50
2018-04-01T21:57:26.488Z,111.03
2018-04-01T22:00:01.225Z,120.73
2018-04-01T22:02:35.905Z,120.83
2018-04-01T22:05:10.922Z,121.10
2018-04-01T22:07:46.545Z,135.40
2018-04-01T22:10:21.253Z,148.20
2018-04-01T22:12:56.025Z,128.97
2018-04-01T22:15:31.214Z,152.73
2018-04-01T22:18:06.054Z,155.33
2018-04-01T22:20:40.842Z,146.30
2018-04-01T22:23:15.079Z,156.70
2018-04-01T22:25:49.425Z,148.63
2018-04-01T22:28:24.942Z,161.23
2018-04-01T22:30:59.743Z,159.63
2018-04-01T22:33:34.609Z,167.50
2018-04-01T22:36:09.318Z,160.90
2018-04-01T22:38:43.696Z,178.20
2018-04-01T22:41:18.901Z,183.80
2018-04-01T22:43:53.408Z,175.07
2018-04-01T22:46:28.192Z,187.37
2018-04-01T22:49:03.414Z,189.10
2018-04-01T22:51:38.217Z,179.57
2018-04-01T22:54:13.150Z,182.30
2018-04-01T22:56:47.605Z,172.83
2018-04-01T22:59:23.040Z,187.23
2018-04-01T23:01:58.040Z,175.80
2018-04-01T23:04:33.093Z,184.40
2018-04-01T23:07:08.361Z,170.83
2018-04-01T23:09:43.055Z,180.17
2018-04-01T23:12:18.939Z,180.53
2018-04-01T23:14:53.757Z,172.50
2018-04-01T23:17:29.561Z,173.60
2018-04-01T23:20:03.967Z,181.67
2018-04-01T23:22:39.768Z,171.67
2018-04-01T23:25:14.513Z,177.40
2018-04-01T23:27:49.294Z,183.53
2018-04-01T23:30:24.017Z,171.97
2018-04-01T23:32:59.603Z,179.60
2018-04-01T23:35:34.551Z,175.00
2018-04-01T23:38:09.364Z,182.23
2018-04-01T23:40:44.026Z,183.50
2018-04-01T23:43:18.798Z,171.30
2018-04-01T23:45:54.346Z,170.83
2018-04-01T23:48:28.997Z,181.00
2018-04-01T23:51:03.929Z,183.60
2018-04-01T23:53:38.612Z,172.63
2018-04-01T23:56:13.566Z,175.03
2018-04-01T23:58:48.168Z,176.97
